sensor_id;sensor_type;location;lat;lon;timestamp;temperature;humidity
15343;DHT22;7771;48.478;8.936;2022-08-19T00:02:13;22.30;99.90
15343;DHT22;7771;48.478;8.936;2022-08-19T00:04:40;22.30;99.90
15343;DHT22;7771;48.478;8.936;2022-08-19T00:07:07;22.30;99.90
15343;DHT22;7771;48.478;8.936;2022-08-19T00:09:34;22.30;99.90
15343;DHT22;7771;48.478;8.936;2022-08-19T00:12:00;22.30;99.90
15343;DHT22;7771;48.478;8.936;2022-08-19T00:14:27;22.30;99.90
15343;DHT22;7771;48.478;8.936;2022-08-19T00:16:53;22.30;99.90
15343;DHT22;7771;48.478;8.936;2022-08-19T00:19:20;23.00;99.90
15343;DHT22;7771;48.478;8.936;2022-08-19T00:21:47;22.20;99.90
15343;DHT22;7771;48.478;8.936;2022-08-19T00:24:14;22.20;99.90
15343;DHT22;7771;48.478;8.936;2022-08-19T00:26:41;22.20;99.90
15343;DHT22;7771;48.478;8.936;2022-08-19T00:29:09;22.20;99.90
15343;DHT22;7771;48.478;8.936;2022-08-19T00:31:34;22.20;99.90
15343;DHT22;7771;48.478;8.936;2022-08-19T00:34:01;22.20;99.90
15343;DHT22;7771;48.478;8.936;2022-08-19T00:36:28;22.20;99.90
15343;DHT22;7771;48.478;8.936;2022-08-19T00:38:55;22.20;99.90
15343;DHT22;7771;48.478;8.936;2022-08-19T00:41:23;22.20;99.90
15343;DHT22;7771;48.478;8.936;2022-08-19T00:44:04;22.20;99.90
15343;DHT22;7771;48.478;8.936;2022-08-19T00:46:29;22.10;99.90
15343;DHT22;7771;48.478;8.936;2022-08-19T00:48:56;22.00;99.90
15343;DHT22;7771;48.478;8.936;2022-08-19T00:51:24;22.00;99.90
15343;DHT22;7771;48.478;8.936;2022-08-19T00:53:49;21.90;99.90
15343;DHT22;7771;48.478;8.936;2022-08-19T00:56:16;21.90;99.90
15343;DHT22;7771;48.478;8.936;2022-08-19T00:58:43;21.90;99.90
15343;DHT22;7771;48.478;8.936;2022-08-19T01:01:09;21.80;99.90
15343;DHT22;7771;48.478;8.936;2022-08-19T01:03:37;21.80;99.90
15343;DHT22;7771;48.478;8.936;2022-08-19T01:06:04;21.80;99.90
15343;DHT22;7771;48.478;8.936;2022-08-19T01:08:31;21.70;99.90
15343;DHT22;7771;48.478;8.936;2022-08-19T01:10:58;21.70;99.90
15343;DHT22;7771;48.478;8.936;2022-08-19T01:13:28;21.70;99.90
15343;DHT22;7771;48.478;8.936;2022-08-19T01:16:00;21.70;99.90
15343;DHT22;7771;48.478;8.936;2022-08-19T01:18:28;21.70;99.90
15343;DHT22;7771;48.478;8.936;2022-08-19T01:20:56;21.60;99.90
15343;DHT22;7771;48.478;8.936;2022-08-19T01:23:23;21.60;99.90
15343;DHT22;7771;48.478;8.936;2022-08-19T01:25:51;21.60;99.90
15343;DHT22;7771;48.478;8.936;2022-08-19T01:28:20;21.50;99.90
15343;DHT22;7771;48.478;8.936;2022-08-19T01:30:46;21.50;99.90
15343;DHT22;7771;48.478;8.936;2022-08-19T01:33:13;21.40;99.90
15343;DHT22;7771;48.478;8.936;2022-08-19T01:35:40;21.40;99.90
15343;DHT22;7771;48.478;8.936;2022-08-19T01:38:08;21.30;99.90
15343;DHT22;7771;48.478;8.936;2022-08-19T01:40:35;21.30;99.90
15343;DHT22;7771;48.478;8.936;2022-08-19T01:43:00;21.30;99.90
15343;DHT22;7771;48.478;8.936;2022-08-19T01:45:27;21.20;99.90
15343;DHT22;7771;48.478;8.936;2022-08-19T01:47:55;21.20;99.90
15343;DHT22;7771;48.478;8.936;2022-08-19T01:50:21;21.20;99.90
15343;DHT22;7771;48.478;8.936;2022-08-19T01:52:48;21.20;99.90
15343;DHT22;7771;48.478;8.936;2022-08-19T01:55:18;21.20;99.90
15343;DHT22;7771;48.478;8.936;2022-08-19T01:57:44;21.20;99.90
15343;DHT22;7771;48.478;8.936;2022-08-19T02:00:11;21.20;99.90
15343;DHT22;7771;48.478;8.936;2022-08-19T02:02:37;21.10;99.90
15343;DHT22;7771;48.478;8.936;2022-08-19T02:05:04;21.10;99.90
15343;DHT22;7771;48.478;8.936;2022-08-19T02:07:31;21.10;99.90
15343;DHT22;7771;48.478;8.936;2022-08-19T02:09:57;21.10;99.90
15343;DHT22;7771;48.478;8.936;2022-08-19T02:12:24;21.10;99.90
15343;DHT22;7771;48.478;8.936;2022-08-19T02:14:50;21.10;99.90
15343;DHT22;7771;48.478;8.936;2022-08-19T02:17:18;21.10;99.90
15343;DHT22;7771;48.478;8.936;2022-08-19T02:19:45;21.00;99.90
15343;DHT22;7771;48.478;8.936;2022-08-19T02:22:12;21.00;99.90
15343;DHT22;7771;48.478;8.936;2022-08-19T02:24:39;21.00;99.90
15343;DHT22;7771;48.478;8.936;2022-08-19T02:27:06;21.00;99.90
15343;DHT22;7771;48.478;8.936;2022-08-19T02:29:32;21.00;99.90
15343;DHT22;7771;48.478;8.936;2022-08-19T02:31:59;21.00;99.90
15343;DHT22;7771;48.478;8.936;2022-08-19T02:34:25;21.00;99.90
15343;DHT22;7771;48.478;8.936;2022-08-19T02:36:53;21.00;99.90
15343;DHT22;7771;48.478;8.936;2022-08-19T02:39:19;21.00;99.90
15343;DHT22;7771;48.478;8.936;2022-08-19T02:41:46;21.00;99.90
15343;DHT22;7771;48.478;8.936;2022-08-19T02:44:13;20.90;99.90
15343;DHT22;7771;48.478;8.936;2022-08-19T02:46:39;20.90;99.90
15343;DHT22;7771;48.478;8.936;2022-08-19T02:49:07;20.90;99.90
15343;DHT22;7771;48.478;8.936;2022-08-19T02:51:35;20.80;99.90
15343;DHT22;7771;48.478;8.936;2022-08-19T02:54:01;20.90;99.90
15343;DHT22;7771;48.478;8.936;2022-08-19T02:56:28;20.90;99.90
15343;DHT22;7771;48.478;8.936;2022-08-19T02:58:55;20.90;99.90
15343;DHT22;7771;48.478;8.936;2022-08-19T03:01:23;20.90;99.90
15343;DHT22;7771;48.478;8.936;2022-08-19T03:03:50;20.90;99.90
15343;DHT22;7771;48.478;8.936;2022-08-19T03:06:17;20.80;99.90
15343;DHT22;7771;48.478;8.936;2022-08-19T03:08:44;20.80;99.90
15343;DHT22;7771;48.478;8.936;2022-08-19T03:11:17;20.80;99.90
15343;DHT22;7771;48.478;8.936;2022-08-19T03:13:43;20.80;99.90
15343;DHT22;7771;48.478;8.936;2022-08-19T03:16:10;20.80;99.90
15343;DHT22;7771;48.478;8.936;2022-08-19T03:18:37;20.70;99.90
15343;DHT22;7771;48.478;8.936;2022-08-19T03:21:03;20.80;99.90
15343;DHT22;7771;48.478;8.936;2022-08-19T03:23:30;20.80;99.90
15343;DHT22;7771;48.478;8.936;2022-08-19T03:25:57;20.80;99.90
15343;DHT22;7771;48.478;8.936;2022-08-19T03:28:24;20.80;99.90
15343;DHT22;7771;48.478;8.936;2022-08-19T03:31:12;20.80;99.90
15343;DHT22;7771;48.478;8.936;2022-08-19T03:33:36;20.80;99.90
15343;DHT22;7771;48.478;8.936;2022-08-19T03:36:05;20.80;99.90
15343;DHT22;7771;48.478;8.936;2022-08-19T03:38:30;20.80;99.90
15343;DHT22;7771;48.478;8.936;2022-08-19T03:40:57;20.80;99.90
15343;DHT22;7771;48.478;8.936;2022-08-19T03:43:24;20.80;99.90
15343;DHT22;7771;48.478;8.936;2022-08-19T03:45:59;20.80;99.90
15343;DHT22;7771;48.478;8.936;2022-08-19T03:48:17;20.80;99.90
15343;DHT22;7771;48.478;8.936;2022-08-19T03:50:44;20.80;99.90
15343;DHT22;7771;48.478;8.936;2022-08-19T03:53:11;20.80;99.90
15343;DHT22;7771;48.478;8.936;2022-08-19T03:55:39;20.80;99.90
15343;DHT22;7771;48.478;8.936;2022-08-19T03:58:05;20.80;99.90
15343;DHT22;7771;48.478;8.936;2022-08-19T04:00:33;20.80;99.90
15343;DHT22;7771;48.478;8.936;2022-08-19T04:03:00;20.80;99.90
15343;DHT22;7771;48.478;8.936;2022-08-19T04:05:27;20.80;99.90
15343;DHT22;7771;48.478;8.936;2022-08-19T04:07:53;20.80;99.90
15343;DHT22;7771;48.478;8.936;2022-08-19T04:10:20;20.80;99.90
15343;DHT22;7771;48.478;8.936;2022-08-19T04:12:47;20.80;99.90
15343;DHT22;7771;48.478;8.936;2022-08-19T04:15:14;20.80;99.90
15343;DHT22;7771;48.478;8.936;2022-08-19T04:17:41;20.80;99.90
15343;DHT22;7771;48.478;8.936;2022-08-19T04:20:08;20.80;99.90
15343;DHT22;7771;48.478;8.936;2022-08-19T04:22:34;20.80;99.90
15343;DHT22;7771;48.478;8.936;2022-08-19T04:25:01;20.80;99.90
15343;DHT22;7771;48.478;8.936;2022-08-19T04:27:28;20.80;99.90
15343;DHT22;7771;48.478;8.936;2022-08-19T04:29:55;20.80;99.90
15343;DHT22;7771;48.478;8.936;2022-08-19T04:32:22;20.80;99.90
15343;DHT22;7771;48.478;8.936;2022-08-19T04:34:49;20.70;99.90
15343;DHT22;7771;48.478;8.936;2022-08-19T04:37:16;20.70;99.90
15343;DHT22;7771;48.478;8.936;2022-08-19T04:39:43;20.70;99.90
15343;DHT22;7771;48.478;8.936;2022-08-19T04:45:02;20.70;99.90
15343;DHT22;7771;48.478;8.936;2022-08-19T04:47:28;20.70;99.90
15343;DHT22;7771;48.478;8.936;2022-08-19T04:49:55;20.70;99.90
15343;DHT22;7771;48.478;8.936;2022-08-19T04:52:22;20.70;99.90
15343;DHT22;7771;48.478;8.936;2022-08-19T04:54:49;20.70;99.90
15343;DHT22;7771;48.478;8.936;2022-08-19T04:57:16;20.70;99.90
15343;DHT22;7771;48.478;8.936;2022-08-19T04:59:43;20.70;99.90
15343;DHT22;7771;48.478;8.936;2022-08-19T05:02:10;20.70;99.90
15343;DHT22;7771;48.478;8.936;2022-08-19T05:04:37;20.70;99.90
15343;DHT22;7771;48.478;8.936;2022-08-19T05:07:04;20.70;99.90
15343;DHT22;7771;48.478;8.936;2022-08-19T05:09:30;20.70;99.90
15343;DHT22;7771;48.478;8.936;2022-08-19T05:11:58;20.60;99.90
15343;DHT22;7771;48.478;8.936;2022-08-19T05:14:25;20.70;99.90
15343;DHT22;7771;48.478;8.936;2022-08-19T05:16:52;20.60;99.90
15343;DHT22;7771;48.478;8.936;2022-08-19T05:19:19;20.60;99.90
15343;DHT22;7771;48.478;8.936;2022-08-19T05:21:51;20.60;99.90
15343;DHT22;7771;48.478;8.936;2022-08-19T05:24:24;20.60;99.90
15343;DHT22;7771;48.478;8.936;2022-08-19T05:26:51;20.60;99.90
15343;DHT22;7771;48.478;8.936;2022-08-19T05:29:18;20.50;99.90
15343;DHT22;7771;48.478;8.936;2022-08-19T05:31:44;20.50;99.90
15343;DHT22;7771;48.478;8.936;2022-08-19T05:34:10;20.50;99.90
15343;DHT22;7771;48.478;8.936;2022-08-19T05:36:40;20.60;99.90
15343;DHT22;7771;48.478;8.936;2022-08-19T05:39:07;20.60;99.90
15343;DHT22;7771;48.478;8.936;2022-08-19T05:41:33;20.60;99.90
15343;DHT22;7771;48.478;8.936;2022-08-19T05:44:03;20.60;99.90
15343;DHT22;7771;48.478;8.936;2022-08-19T05:46:29;20.60;99.90
15343;DHT22;7771;48.478;8.936;2022-08-19T05:48:55;20.70;99.90
15343;DHT22;7771;48.478;8.936;2022-08-19T05:51:22;20.60;99.90
15343;DHT22;7771;48.478;8.936;2022-08-19T05:53:50;20.70;99.90
15343;DHT22;7771;48.478;8.936;2022-08-19T05:56:17;20.70;99.90
15343;DHT22;7771;48.478;8.936;2022-08-19T05:58:44;20.70;99.90
15343;DHT22;7771;48.478;8.936;2022-08-19T06:01:13;20.80;99.90
15343;DHT22;7771;48.478;8.936;2022-08-19T06:03:38;20.70;99.90
15343;DHT22;7771;48.478;8.936;2022-08-19T06:06:05;20.70;99.90
15343;DHT22;7771;48.478;8.936;2022-08-19T06:08:31;20.70;99.90
15343;DHT22;7771;48.478;8.936;2022-08-19T06:10:58;20.70;99.90
15343;DHT22;7771;48.478;8.936;2022-08-19T06:13:25;20.70;99.90
15343;DHT22;7771;48.478;8.936;2022-08-19T06:15:51;20.70;99.90
15343;DHT22;7771;48.478;8.936;2022-08-19T06:18:18;20.70;99.90
15343;DHT22;7771;48.478;8.936;2022-08-19T06:20:45;20.70;99.90
15343;DHT22;7771;48.478;8.936;2022-08-19T06:23:12;20.70;99.90
15343;DHT22;7771;48.478;8.936;2022-08-19T06:25:40;20.70;99.90
15343;DHT22;7771;48.478;8.936;2022-08-19T06:28:06;20.70;99.90
15343;DHT22;7771;48.478;8.936;2022-08-19T06:30:35;20.70;99.90
15343;DHT22;7771;48.478;8.936;2022-08-19T06:33:01;20.80;99.90
15343;DHT22;7771;48.478;8.936;2022-08-19T06:35:28;20.80;99.90
15343;DHT22;7771;48.478;8.936;2022-08-19T06:37:55;20.80;99.90
15343;DHT22;7771;48.478;8.936;2022-08-19T06:40:22;20.80;99.90
15343;DHT22;7771;48.478;8.936;2022-08-19T06:42:49;20.90;99.90
15343;DHT22;7771;48.478;8.936;2022-08-19T06:45:15;20.90;99.90
15343;DHT22;7771;48.478;8.936;2022-08-19T06:47:43;20.90;99.90
15343;DHT22;7771;48.478;8.936;2022-08-19T06:50:10;20.90;99.90
15343;DHT22;7771;48.478;8.936;2022-08-19T06:52:37;20.90;99.90
15343;DHT22;7771;48.478;8.936;2022-08-19T06:55:04;21.00;99.90
15343;DHT22;7771;48.478;8.936;2022-08-19T06:57:30;21.00;99.90
15343;DHT22;7771;48.478;8.936;2022-08-19T06:59:57;21.00;99.90
15343;DHT22;7771;48.478;8.936;2022-08-19T07:02:25;21.00;99.90
15343;DHT22;7771;48.478;8.936;2022-08-19T07:04:52;21.00;99.90
15343;DHT22;7771;48.478;8.936;2022-08-19T07:07:18;21.00;99.90
15343;DHT22;7771;48.478;8.936;2022-08-19T07:09:45;21.10;99.90
15343;DHT22;7771;48.478;8.936;2022-08-19T07:12:12;21.00;99.90
15343;DHT22;7771;48.478;8.936;2022-08-19T07:14:39;21.10;99.90
15343;DHT22;7771;48.478;8.936;2022-08-19T07:17:08;21.10;99.90
15343;DHT22;7771;48.478;8.936;2022-08-19T07:19:33;21.10;99.90
15343;DHT22;7771;48.478;8.936;2022-08-19T07:22:01;21.20;99.90
15343;DHT22;7771;48.478;8.936;2022-08-19T07:24:28;21.20;99.90
15343;DHT22;7771;48.478;8.936;2022-08-19T07:26:55;21.20;99.90
15343;DHT22;7771;48.478;8.936;2022-08-19T07:29:25;21.20;99.90
15343;DHT22;7771;48.478;8.936;2022-08-19T07:31:52;21.30;99.90
15343;DHT22;7771;48.478;8.936;2022-08-19T07:34:18;21.30;99.90
15343;DHT22;7771;48.478;8.936;2022-08-19T07:36:45;21.30;99.90
15343;DHT22;7771;48.478;8.936;2022-08-19T07:39:13;21.30;99.90
15343;DHT22;7771;48.478;8.936;2022-08-19T07:41:39;21.30;99.90
15343;DHT22;7771;48.478;8.936;2022-08-19T07:44:06;21.40;99.90
15343;DHT22;7771;48.478;8.936;2022-08-19T07:46:33;21.40;99.90
15343;DHT22;7771;48.478;8.936;2022-08-19T07:48:59;21.40;99.90
15343;DHT22;7771;48.478;8.936;2022-08-19T07:51:26;21.40;99.90
15343;DHT22;7771;48.478;8.936;2022-08-19T07:53:52;21.50;99.90
15343;DHT22;7771;48.478;8.936;2022-08-19T07:56:20;21.50;99.90
15343;DHT22;7771;48.478;8.936;2022-08-19T07:58:47;21.60;99.90
15343;DHT22;7771;48.478;8.936;2022-08-19T08:01:14;21.60;99.90
15343;DHT22;7771;48.478;8.936;2022-08-19T08:03:39;21.70;99.90
15343;DHT22;7771;48.478;8.936;2022-08-19T08:06:12;21.80;99.90
15343;DHT22;7771;48.478;8.936;2022-08-19T08:08:44;21.80;99.90
15343;DHT22;7771;48.478;8.936;2022-08-19T08:11:17;21.90;99.90
15343;DHT22;7771;48.478;8.936;2022-08-19T08:13:43;21.90;99.90
15343;DHT22;7771;48.478;8.936;2022-08-19T08:16:10;21.90;99.90
15343;DHT22;7771;48.478;8.936;2022-08-19T08:18:36;21.90;99.90
15343;DHT22;7771;48.478;8.936;2022-08-19T08:21:03;22.00;99.90
15343;DHT22;7771;48.478;8.936;2022-08-19T08:23:29;22.00;99.90
15343;DHT22;7771;48.478;8.936;2022-08-19T08:25:57;22.00;99.90
15343;DHT22;7771;48.478;8.936;2022-08-19T08:28:25;22.00;99.90
15343;DHT22;7771;48.478;8.936;2022-08-19T08:30:51;22.00;99.90
15343;DHT22;7771;48.478;8.936;2022-08-19T08:33:18;22.00;99.90
15343;DHT22;7771;48.478;8.936;2022-08-19T08:35:45;22.00;99.90
15343;DHT22;7771;48.478;8.936;2022-08-19T08:38:12;22.00;99.90
15343;DHT22;7771;48.478;8.936;2022-08-19T08:40:43;22.00;99.90
15343;DHT22;7771;48.478;8.936;2022-08-19T08:43:09;22.00;99.90
15343;DHT22;7771;48.478;8.936;2022-08-19T08:45:36;22.00;99.90
15343;DHT22;7771;48.478;8.936;2022-08-19T08:48:05;22.00;99.90
15343;DHT22;7771;48.478;8.936;2022-08-19T08:50:34;22.00;99.90
15343;DHT22;7771;48.478;8.936;2022-08-19T08:52:59;22.00;99.90
15343;DHT22;7771;48.478;8.936;2022-08-19T08:55:27;22.00;99.90
15343;DHT22;7771;48.478;8.936;2022-08-19T08:57:53;22.00;99.90
15343;DHT22;7771;48.478;8.936;2022-08-19T09:00:23;22.00;99.90
15343;DHT22;7771;48.478;8.936;2022-08-19T09:02:48;22.10;99.90
15343;DHT22;7771;48.478;8.936;2022-08-19T09:05:15;22.00;99.90
15343;DHT22;7771;48.478;8.936;2022-08-19T09:07:46;22.00;99.90
15343;DHT22;7771;48.478;8.936;2022-08-19T09:10:17;22.00;99.90
15343;DHT22;7771;48.478;8.936;2022-08-19T09:12:47;22.00;99.90
15343;DHT22;7771;48.478;8.936;2022-08-19T09:15:12;22.00;99.90
15343;DHT22;7771;48.478;8.936;2022-08-19T09:17:40;22.00;99.90
15343;DHT22;7771;48.478;8.936;2022-08-19T09:20:14;22.00;99.90
15343;DHT22;7771;48.478;8.936;2022-08-19T09:22:34;22.00;99.90
15343;DHT22;7771;48.478;8.936;2022-08-19T09:25:00;22.00;99.90
15343;DHT22;7771;48.478;8.936;2022-08-19T09:27:27;22.00;99.90
15343;DHT22;7771;48.478;8.936;2022-08-19T09:29:53;21.90;99.90
15343;DHT22;7771;48.478;8.936;2022-08-19T09:32:20;21.90;99.90
15343;DHT22;7771;48.478;8.936;2022-08-19T09:34:46;21.90;99.90
15343;DHT22;7771;48.478;8.936;2022-08-19T09:37:13;22.00;99.90
15343;DHT22;7771;48.478;8.936;2022-08-19T09:39:40;22.00;99.90
15343;DHT22;7771;48.478;8.936;2022-08-19T09:42:07;22.00;99.90
15343;DHT22;7771;48.478;8.936;2022-08-19T09:44:33;22.00;99.90
15343;DHT22;7771;48.478;8.936;2022-08-19T09:47:00;22.10;99.90
15343;DHT22;7771;48.478;8.936;2022-08-19T09:49:27;22.00;99.90
15343;DHT22;7771;48.478;8.936;2022-08-19T09:51:58;22.00;99.90
15343;DHT22;7771;48.478;8.936;2022-08-19T09:54:25;22.00;99.90
15343;DHT22;7771;48.478;8.936;2022-08-19T09:56:53;22.00;99.90
15343;DHT22;7771;48.478;8.936;2022-08-19T09:59:19;22.00;99.90
15343;DHT22;7771;48.478;8.936;2022-08-19T10:01:46;22.00;99.90
15343;DHT22;7771;48.478;8.936;2022-08-19T10:04:13;22.00;99.90
15343;DHT22;7771;48.478;8.936;2022-08-19T10:06:39;22.00;99.90
15343;DHT22;7771;48.478;8.936;2022-08-19T10:09:07;22.00;99.90
15343;DHT22;7771;48.478;8.936;2022-08-19T10:11:34;22.00;99.90
15343;DHT22;7771;48.478;8.936;2022-08-19T10:14:01;22.00;99.90
15343;DHT22;7771;48.478;8.936;2022-08-19T10:16:28;22.00;99.90
15343;DHT22;7771;48.478;8.936;2022-08-19T10:18:54;22.00;99.90
15343;DHT22;7771;48.478;8.936;2022-08-19T10:21:23;22.00;99.90
15343;DHT22;7771;48.478;8.936;2022-08-19T10:23:49;22.00;99.90
15343;DHT22;7771;48.478;8.936;2022-08-19T10:26:25;22.00;99.90
15343;DHT22;7771;48.478;8.936;2022-08-19T10:28:44;22.10;99.90
15343;DHT22;7771;48.478;8.936;2022-08-19T10:31:14;22.00;99.90
15343;DHT22;7771;48.478;8.936;2022-08-19T10:33:40;22.00;99.90
15343;DHT22;7771;48.478;8.936;2022-08-19T10:36:08;22.00;99.90
15343;DHT22;7771;48.478;8.936;2022-08-19T10:38:34;22.00;99.90
15343;DHT22;7771;48.478;8.936;2022-08-19T10:41:08;22.00;99.90
15343;DHT22;7771;48.478;8.936;2022-08-19T10:43:33;22.10;99.90
15343;DHT22;7771;48.478;8.936;2022-08-19T10:46:01;22.10;99.90
15343;DHT22;7771;48.478;8.936;2022-08-19T10:48:29;22.10;99.90
15343;DHT22;7771;48.478;8.936;2022-08-19T10:50:56;22.00;99.90
15343;DHT22;7771;48.478;8.936;2022-08-19T10:53:27;22.10;99.90
15343;DHT22;7771;48.478;8.936;2022-08-19T10:55:54;22.10;99.90
15343;DHT22;7771;48.478;8.936;2022-08-19T10:58:27;22.00;99.90
15343;DHT22;7771;48.478;8.936;2022-08-19T11:00:57;22.00;99.90
15343;DHT22;7771;48.478;8.936;2022-08-19T11:03:20;22.10;99.90
15343;DHT22;7771;48.478;8.936;2022-08-19T11:05:56;22.10;99.90
15343;DHT22;7771;48.478;8.936;2022-08-19T11:08:14;22.10;99.90
15343;DHT22;7771;48.478;8.936;2022-08-19T11:10:41;22.10;99.90
15343;DHT22;7771;48.478;8.936;2022-08-19T11:13:08;22.10;99.90
15343;DHT22;7771;48.478;8.936;2022-08-19T11:15:34;22.20;99.90
15343;DHT22;7771;48.478;8.936;2022-08-19T11:18:01;22.20;99.90
15343;DHT22;7771;48.478;8.936;2022-08-19T11:20:28;22.20;99.90
15343;DHT22;7771;48.478;8.936;2022-08-19T11:22:55;22.30;99.90
15343;DHT22;7771;48.478;8.936;2022-08-19T11:25:22;22.30;99.90
15343;DHT22;7771;48.478;8.936;2022-08-19T11:27:49;22.30;99.90
15343;DHT22;7771;48.478;8.936;2022-08-19T11:30:16;22.30;99.90
15343;DHT22;7771;48.478;8.936;2022-08-19T11:32:42;22.40;99.90
15343;DHT22;7771;48.478;8.936;2022-08-19T11:35:09;22.40;99.90
15343;DHT22;7771;48.478;8.936;2022-08-19T11:37:35;22.30;99.90
15343;DHT22;7771;48.478;8.936;2022-08-19T11:40:02;22.30;99.90
15343;DHT22;7771;48.478;8.936;2022-08-19T11:42:30;22.30;99.90
15343;DHT22;7771;48.478;8.936;2022-08-19T11:45:02;22.30;99.90
15343;DHT22;7771;48.478;8.936;2022-08-19T11:47:29;22.30;99.90
15343;DHT22;7771;48.478;8.936;2022-08-19T11:49:56;22.20;99.90
15343;DHT22;7771;48.478;8.936;2022-08-19T11:52:23;22.20;99.90
15343;DHT22;7771;48.478;8.936;2022-08-19T11:54:49;22.20;99.90
15343;DHT22;7771;48.478;8.936;2022-08-19T11:57:17;22.10;99.90
15343;DHT22;7771;48.478;8.936;2022-08-19T11:59:48;22.10;99.90
15343;DHT22;7771;48.478;8.936;2022-08-19T12:02:13;22.10;99.90
15343;DHT22;7771;48.478;8.936;2022-08-19T12:04:40;22.00;99.90
15343;DHT22;7771;48.478;8.936;2022-08-19T12:07:08;22.00;99.90
15343;DHT22;7771;48.478;8.936;2022-08-19T12:09:34;22.00;99.90
15343;DHT22;7771;48.478;8.936;2022-08-19T12:12:02;21.90;99.90
15343;DHT22;7771;48.478;8.936;2022-08-19T12:14:29;21.90;99.90
15343;DHT22;7771;48.478;8.936;2022-08-19T12:19:32;21.90;99.90
15343;DHT22;7771;48.478;8.936;2022-08-19T12:21:59;21.90;99.90
15343;DHT22;7771;48.478;8.936;2022-08-19T12:24:26;21.90;99.90
15343;DHT22;7771;48.478;8.936;2022-08-19T12:26:53;21.80;99.90
15343;DHT22;7771;48.478;8.936;2022-08-19T12:29:20;21.80;99.90
15343;DHT22;7771;48.478;8.936;2022-08-19T12:31:46;21.80;99.90
15343;DHT22;7771;48.478;8.936;2022-08-19T12:34:13;21.80;99.90
15343;DHT22;7771;48.478;8.936;2022-08-19T12:36:40;21.80;99.90
15343;DHT22;7771;48.478;8.936;2022-08-19T12:39:08;21.70;99.90
15343;DHT22;7771;48.478;8.936;2022-08-19T12:41:36;21.70;99.90
15343;DHT22;7771;48.478;8.936;2022-08-19T12:44:02;21.80;99.90
15343;DHT22;7771;48.478;8.936;2022-08-19T12:46:29;21.80;99.90
15343;DHT22;7771;48.478;8.936;2022-08-19T12:48:56;21.80;99.90
15343;DHT22;7771;48.478;8.936;2022-08-19T12:51:22;21.80;99.90
15343;DHT22;7771;48.478;8.936;2022-08-19T12:53:49;21.80;99.90
15343;DHT22;7771;48.478;8.936;2022-08-19T12:56:17;21.80;99.90
15343;DHT22;7771;48.478;8.936;2022-08-19T12:58:44;21.80;99.90
15343;DHT22;7771;48.478;8.936;2022-08-19T13:01:11;21.80;99.90
15343;DHT22;7771;48.478;8.936;2022-08-19T13:03:39;21.80;99.90
15343;DHT22;7771;48.478;8.936;2022-08-19T13:06:06;21.80;99.90
15343;DHT22;7771;48.478;8.936;2022-08-19T13:08:32;21.80;99.90
15343;DHT22;7771;48.478;8.936;2022-08-19T13:11:06;21.80;99.90
15343;DHT22;7771;48.478;8.936;2022-08-19T13:13:26;21.90;99.90
15343;DHT22;7771;48.478;8.936;2022-08-19T13:15:59;22.00;99.90
15343;DHT22;7771;48.478;8.936;2022-08-19T13:18:20;22.00;99.90
15343;DHT22;7771;48.478;8.936;2022-08-19T13:20:47;22.20;99.90
15343;DHT22;7771;48.478;8.936;2022-08-19T13:23:13;22.20;99.90
15343;DHT22;7771;48.478;8.936;2022-08-19T13:25:41;22.20;99.90
15343;DHT22;7771;48.478;8.936;2022-08-19T13:28:08;22.20;99.90
15343;DHT22;7771;48.478;8.936;2022-08-19T13:30:35;22.20;99.90
15343;DHT22;7771;48.478;8.936;2022-08-19T13:33:07;22.20;99.90
15343;DHT22;7771;48.478;8.936;2022-08-19T13:35:37;22.20;99.90
15343;DHT22;7771;48.478;8.936;2022-08-19T13:38:05;22.20;99.90
15343;DHT22;7771;48.478;8.936;2022-08-19T13:40:32;22.20;99.90
15343;DHT22;7771;48.478;8.936;2022-08-19T13:42:58;22.20;99.90
15343;DHT22;7771;48.478;8.936;2022-08-19T13:45:27;22.10;99.90
15343;DHT22;7771;48.478;8.936;2022-08-19T13:47:53;22.10;99.90
15343;DHT22;7771;48.478;8.936;2022-08-19T13:50:21;22.10;99.90
15343;DHT22;7771;48.478;8.936;2022-08-19T13:52:46;22.20;99.90
15343;DHT22;7771;48.478;8.936;2022-08-19T13:55:14;22.30;99.90
15343;DHT22;7771;48.478;8.936;2022-08-19T13:57:40;22.40;99.90
15343;DHT22;7771;48.478;8.936;2022-08-19T14:00:09;22.40;99.90
15343;DHT22;7771;48.478;8.936;2022-08-19T14:02:34;22.40;99.90
15343;DHT22;7771;48.478;8.936;2022-08-19T14:05:01;22.40;99.90
15343;DHT22;7771;48.478;8.936;2022-08-19T14:07:28;22.60;99.90
15343;DHT22;7771;48.478;8.936;2022-08-19T14:09:54;22.70;99.90
15343;DHT22;7771;48.478;8.936;2022-08-19T14:12:22;22.80;99.90
15343;DHT22;7771;48.478;8.936;2022-08-19T14:14:49;22.90;99.90
15343;DHT22;7771;48.478;8.936;2022-08-19T14:17:16;23.10;99.90
15343;DHT22;7771;48.478;8.936;2022-08-19T14:19:43;23.10;99.90
15343;DHT22;7771;48.478;8.936;2022-08-19T14:22:09;23.20;99.90
15343;DHT22;7771;48.478;8.936;2022-08-19T14:24:37;23.20;99.90
15343;DHT22;7771;48.478;8.936;2022-08-19T14:27:03;23.30;99.90
15343;DHT22;7771;48.478;8.936;2022-08-19T14:29:30;23.40;99.90
15343;DHT22;7771;48.478;8.936;2022-08-19T14:31:56;23.50;99.90
15343;DHT22;7771;48.478;8.936;2022-08-19T14:34:24;23.60;99.90
15343;DHT22;7771;48.478;8.936;2022-08-19T14:36:50;23.70;99.90
15343;DHT22;7771;48.478;8.936;2022-08-19T14:39:17;23.90;99.90
15343;DHT22;7771;48.478;8.936;2022-08-19T14:41:43;24.10;99.90
15343;DHT22;7771;48.478;8.936;2022-08-19T14:44:10;24.20;99.90
15343;DHT22;7771;48.478;8.936;2022-08-19T14:46:37;24.40;99.90
15343;DHT22;7771;48.478;8.936;2022-08-19T14:49:04;24.50;99.90
15343;DHT22;7771;48.478;8.936;2022-08-19T14:51:31;24.70;99.90
15343;DHT22;7771;48.478;8.936;2022-08-19T14:53:59;24.90;99.90
15343;DHT22;7771;48.478;8.936;2022-08-19T14:56:27;24.90;99.90
15343;DHT22;7771;48.478;8.936;2022-08-19T14:58:52;25.20;99.90
15343;DHT22;7771;48.478;8.936;2022-08-19T15:01:19;25.20;99.90
15343;DHT22;7771;48.478;8.936;2022-08-19T15:03:46;25.40;99.90
15343;DHT22;7771;48.478;8.936;2022-08-19T15:06:12;25.40;99.90
15343;DHT22;7771;48.478;8.936;2022-08-19T15:08:39;25.40;99.90
15343;DHT22;7771;48.478;8.936;2022-08-19T15:11:11;25.60;99.90
15343;DHT22;7771;48.478;8.936;2022-08-19T15:13:35;25.60;99.90
15343;DHT22;7771;48.478;8.936;2022-08-19T15:16:01;25.70;99.90
15343;DHT22;7771;48.478;8.936;2022-08-19T15:18:28;25.70;99.90
15343;DHT22;7771;48.478;8.936;2022-08-19T15:20:55;25.80;99.90
15343;DHT22;7771;48.478;8.936;2022-08-19T15:23:21;25.80;99.90
15343;DHT22;7771;48.478;8.936;2022-08-19T15:25:48;25.80;99.90
15343;DHT22;7771;48.478;8.936;2022-08-19T15:28:15;25.90;99.90
15343;DHT22;7771;48.478;8.936;2022-08-19T15:30:43;26.00;99.90
15343;DHT22;7771;48.478;8.936;2022-08-19T15:33:10;26.10;99.90
15343;DHT22;7771;48.478;8.936;2022-08-19T15:35:37;26.10;99.90
15343;DHT22;7771;48.478;8.936;2022-08-19T15:38:03;26.10;99.90
15343;DHT22;7771;48.478;8.936;2022-08-19T15:40:30;26.00;99.90
15343;DHT22;7771;48.478;8.936;2022-08-19T15:42:56;26.00;99.90
15343;DHT22;7771;48.478;8.936;2022-08-19T15:45:23;25.90;99.90
15343;DHT22;7771;48.478;8.936;2022-08-19T15:47:50;25.80;99.90
15343;DHT22;7771;48.478;8.936;2022-08-19T15:50:18;25.70;99.90